Time;durP1;ratioP1;P1;durP2;ratioP2;P2;SDS_P1;SDS_P2;PMS_P1;PMS_P2;Temp;Humidity;BMP_temperature;BMP_pressure;BME280_temperature;BME280_humidity;BME280_pressure;Samples;Min_cycle;Max_cycle;Signal;HPM_P1;HPM_P2
2023/08/03 00:02:13;;;;;;;;;;;;;;;26.00;65.83;99704.47;6256183;23;19907;-89
2023/08/03 00:05:24;;;;;;;;;;;;;;;25.93;66.32;99715.81;6255640;23;20326;-88
2023/08/03 00:08:15;;;;;;;;;;;;;;;26.05;65.78;99725.44;6256177;23;19907;-88
2023/08/03 00:11:07;;;;;;;;;;;;;;;25.89;66.89;99723.50;6255686;22;19911;-88
2023/08/03 00:13:59;;;;;;;;;;;;;;;25.74;67.31;99731.50;6255586;23;20242;-88
2023/08/03 00:16:49;;;;;;;;;;;;;;;25.60;68.27;99733.94;6255991;23;19907;-88
2023/08/03 00:19:58;;;;;;;;;;;;;;;25.62;67.90;99728.69;6255788;22;19907;-88
2023/08/03 00:23:11;;;;;;;;;;;;;;;25.62;68.24;99728.69;6256507;23;19907;-88
2023/08/03 00:26:22;;;;;;;;;;;;;;;25.95;66.01;99727.31;6255991;23;19908;-88
2023/08/03 00:29:12;;;;;;;;;;;;;;;26.16;65.42;99737.78;6254877;23;19908;-88
2023/08/03 00:32:06;;;;;;;;;;;;;;;25.98;66.34;99727.19;6255135;23;19915;-88
2023/08/03 00:35:13;;;;;;;;;;;;;;;25.83;67.59;99728.06;6255244;23;20261;-88
2023/08/03 00:37:57;;;;;;;;;;;;;;;25.84;66.91;99726.84;6255564;23;19908;-88
2023/08/03 00:40:49;;;;;;;;;;;;;;;25.77;67.87;99724.25;6255758;22;20319;-88
2023/08/03 00:43:41;;;;;;;;;;;;;;;25.79;67.70;99724.59;6254011;23;19947;-88
2023/08/03 00:46:31;;;;;;;;;;;;;;;25.76;67.93;99725.47;6255516;23;19907;-88
2023/08/03 00:49:23;;;;;;;;;;;;;;;25.72;68.15;99720.03;6254489;23;19907;-88
2023/08/03 00:52:15;;;;;;;;;;;;;;;25.71;68.63;99723.25;6233818;23;19915;-88
2023/08/03 00:55:07;;;;;;;;;;;;;;;25.54;68.78;99731.66;6266250;22;19907;-86
2023/08/03 00:57:59;;;;;;;;;;;;;;;25.85;67.21;99723.59;6294190;22;20341;-85
2023/08/03 01:00:46;;;;;;;;;;;;;;;26.04;66.57;99741.38;6289648;22;19914;-85
2023/08/03 01:03:39;;;;;;;;;;;;;;;26.02;66.40;99738.22;6283867;22;19907;-85
2023/08/03 01:06:48;;;;;;;;;;;;;;;25.89;66.84;99735.44;6284279;22;19911;-86
2023/08/03 01:09:40;;;;;;;;;;;;;;;25.83;67.56;99725.28;6264129;22;19911;-86
2023/08/03 01:12:30;;;;;;;;;;;;;;;25.67;68.05;99725.34;6284960;22;20158;-85
2023/08/03 01:15:19;;;;;;;;;;;;;;;25.57;68.96;99718.88;6284289;22;19907;-86
2023/08/03 01:18:29;;;;;;;;;;;;;;;25.45;69.25;99700.06;6286108;22;19907;-85
2023/08/03 01:21:22;;;;;;;;;;;;;;;25.42;69.43;99712.88;6278335;22;19907;-85
2023/08/03 01:24:11;;;;;;;;;;;;;;;25.45;69.33;99706.44;6285446;22;20250;-85
2023/08/03 01:27:03;;;;;;;;;;;;;;;25.39;69.29;99711.00;6285881;22;19907;-85
2023/08/03 01:29:55;;;;;;;;;;;;;;;25.26;70.36;99704.59;6284250;22;19911;-85
2023/08/03 01:32:45;;;;;;;;;;;;;;;25.18;70.63;99703.22;6284458;22;19907;-85
2023/08/03 01:35:32;;;;;;;;;;;;;;;25.25;70.63;99697.47;6284623;22;20234;-86
2023/08/03 01:38:21;;;;;;;;;;;;;;;25.31;70.08;99695.69;6284554;22;19911;-86
2023/08/03 01:41:14;;;;;;;;;;;;;;;25.27;70.04;99678.31;6284571;22;19911;-85
2023/08/03 01:44:23;;;;;;;;;;;;;;;25.46;68.71;99684.94;6285540;22;20242;-86
2023/08/03 01:47:16;;;;;;;;;;;;;;;25.45;69.18;99686.94;6284497;22;19907;-85
2023/08/03 01:50:25;;;;;;;;;;;;;;;25.38;69.17;99684.38;6284131;22;19911;-85
2023/08/03 01:53:32;;;;;;;;;;;;;;;25.45;68.97;99672.25;6285702;22;19907;-86
2023/08/03 01:56:22;;;;;;;;;;;;;;;25.58;68.63;99677.88;6284520;22;19907;-85
2023/08/03 01:59:14;;;;;;;;;;;;;;;25.52;69.12;99680.41;6284480;22;19907;-86
2023/08/03 02:02:06;;;;;;;;;;;;;;;25.44;69.03;99682.63;6284701;22;20339;-85
2023/08/03 02:04:58;;;;;;;;;;;;;;;25.33;69.76;99681.34;6284286;22;19906;-85
2023/08/03 02:07:56;;;;;;;;;;;;;;;25.37;69.41;99682.03;6284359;22;19915;-86
2023/08/03 02:10:48;;;;;;;;;;;;;;;25.39;68.96;99685.94;6285212;22;19915;-86
2023/08/03 02:13:40;;;;;;;;;;;;;;;25.46;68.89;99676.59;6283835;22;19915;-85
2023/08/03 02:16:33;;;;;;;;;;;;;;;25.33;69.03;99670.22;6263838;22;20269;-86
2023/08/03 02:19:25;;;;;;;;;;;;;;;25.31;69.62;99667.09;6284158;22;19907;-86
2023/08/03 02:22:15;;;;;;;;;;;;;;;25.22;70.32;99669.72;6284196;22;20322;-86
2023/08/03 02:25:26;;;;;;;;;;;;;;;24.95;70.98;99664.50;6284312;22;19907;-85
2023/08/03 02:28:18;;;;;;;;;;;;;;;24.96;71.09;99663.28;6284559;22;19907;-85
2023/08/03 02:31:27;;;;;;;;;;;;;;;25.03;70.77;99668.66;6285260;22;19911;-85
2023/08/03 02:34:19;;;;;;;;;;;;;;;24.96;71.44;99677.97;6285094;22;19911;-85
2023/08/03 02:37:27;;;;;;;;;;;;;;;24.92;71.51;99679.28;6284223;22;19911;-85
2023/08/03 02:40:40;;;;;;;;;;;;;;;24.90;71.72;99662.25;6284247;22;19911;-86
2023/08/03 02:43:27;;;;;;;;;;;;;;;24.94;71.98;99668.53;6263097;22;20262;-86
2023/08/03 02:46:20;;;;;;;;;;;;;;;24.96;71.60;99668.84;6284377;22;19911;-86
2023/08/03 02:49:12;;;;;;;;;;;;;;;25.13;70.97;99659.25;6263646;22;19911;-85
2023/08/03 02:52:05;;;;;;;;;;;;;;;25.24;70.50;99650.59;6284380;22;19911;-86
2023/08/03 02:55:05;;;;;;;;;;;;;;;25.18;70.97;99650.34;6285267;22;19907;-86
2023/08/03 02:57:57;;;;;;;;;;;;;;;25.08;71.42;99654.22;6286797;22;20072;-86
2023/08/03 03:01:06;;;;;;;;;;;;;;;24.91;72.09;99653.47;6286207;22;19907;-85
2023/08/03 03:03:58;;;;;;;;;;;;;;;24.83;72.46;99654.88;6286160;22;19911;-86
2023/08/03 03:06:51;;;;;;;;;;;;;;;24.86;72.54;99658.75;6285081;22;20189;-86
2023/08/03 03:09:42;;;;;;;;;;;;;;;24.87;72.62;99671.44;6286010;22;19907;-85
2023/08/03 03:12:33;;;;;;;;;;;;;;;25.03;71.54;99666.66;6287203;22;19906;-85
2023/08/03 03:15:26;;;;;;;;;;;;;;;24.91;71.20;99664.59;6285844;22;19906;-85
2023/08/03 03:18:18;;;;;;;;;;;;;;;24.90;71.49;99659.47;6286254;22;20318;-85
2023/08/03 03:21:10;;;;;;;;;;;;;;;24.87;71.34;99663.09;6286501;22;20318;-85
2023/08/03 03:24:03;;;;;;;;;;;;;;;24.84;71.78;99675.13;6285613;22;19906;-85
2023/08/03 03:26:55;;;;;;;;;;;;;;;24.80;72.41;99679.97;6287132;22;19907;-86
2023/08/03 03:29:46;;;;;;;;;;;;;;;24.95;71.70;99673.63;6287263;22;19907;-85
2023/08/03 03:32:39;;;;;;;;;;;;;;;24.78;72.34;99674.88;6265150;22;19911;-86
2023/08/03 03:35:32;;;;;;;;;;;;;;;24.83;72.30;99679.13;6286704;22;19907;-86
2023/08/03 03:38:21;;;;;;;;;;;;;;;24.82;72.35;99677.53;6285744;22;19907;-86
2023/08/03 03:41:11;;;;;;;;;;;;;;;24.84;72.27;99681.44;6286802;22;19907;-86
2023/08/03 03:44:05;;;;;;;;;;;;;;;24.88;71.93;99675.81;6285603;22;19911;-86
2023/08/03 03:46:54;;;;;;;;;;;;;;;24.86;72.10;99681.78;6285818;22;19906;-86
2023/08/03 03:49:46;;;;;;;;;;;;;;;24.89;72.06;99685.75;6285556;22;19907;-86
2023/08/03 03:52:36;;;;;;;;;;;;;;;24.95;71.25;99687.53;6285515;22;19907;-86
2023/08/03 03:55:28;;;;;;;;;;;;;;;24.93;71.43;99686.44;6286532;22;19907;-86
2023/08/03 03:58:18;;;;;;;;;;;;;;;24.81;71.96;99689.88;6285767;22;19907;-86
2023/08/03 04:01:28;;;;;;;;;;;;;;;24.79;72.03;99687.53;6285717;22;19907;-85
2023/08/03 04:04:20;;;;;;;;;;;;;;;24.86;71.70;99690.13;6285172;22;20265;-86
2023/08/03 04:07:12;;;;;;;;;;;;;;;24.83;71.68;99695.78;6285603;22;19907;-86
2023/08/03 04:10:04;;;;;;;;;;;;;;;24.89;71.49;99694.09;6285604;22;19907;-86
2023/08/03 04:12:51;;;;;;;;;;;;;;;24.88;71.61;99690.53;6285525;22;19915;-86
2023/08/03 04:15:44;;;;;;;;;;;;;;;25.03;71.09;99688.13;6307670;22;19907;-86
2023/08/03 04:18:36;;;;;;;;;;;;;;;24.93;71.15;99698.34;6285492;22;19907;-86
2023/08/03 04:21:23;;;;;;;;;;;;;;;24.97;71.30;99701.78;6285419;22;19907;-85
2023/08/03 04:24:14;;;;;;;;;;;;;;;24.88;71.64;99695.28;6285174;22;19907;-86
2023/08/03 04:27:06;;;;;;;;;;;;;;;24.96;71.33;99685.53;6304815;22;20246;-86
2023/08/03 04:29:58;;;;;;;;;;;;;;;24.66;72.71;99683.91;6284680;22;19907;-81
2023/08/03 04:32:47;;;;;;;;;;;;;;;23.84;76.25;99688.56;6285036;22;19910;-88
2023/08/03 04:35:40;;;;;;;;;;;;;;;23.82;77.64;99699.31;6285969;22;20334;-83
2023/08/03 04:38:41;;;;;;;;;;;;;;;23.82;78.14;99695.78;6284848;22;19907;-82
2023/08/03 04:41:33;;;;;;;;;;;;;;;24.11;76.39;99687.59;6282136;22;19907;-83
2023/08/03 04:44:25;;;;;;;;;;;;;;;24.44;74.63;99685.63;6284355;22;20250;-82
2023/08/03 04:47:15;;;;;;;;;;;;;;;24.43;74.74;99684.09;6284201;22;20322;-83
2023/08/03 04:50:22;;;;;;;;;;;;;;;24.71;73.97;99680.59;6281310;22;20162;-82
2023/08/03 04:53:14;;;;;;;;;;;;;;;24.87;72.65;99682.56;6280514;22;19915;-81
2023/08/03 04:56:06;;;;;;;;;;;;;;;25.03;72.44;99679.78;6281770;22;19907;-81
2023/08/03 04:58:58;;;;;;;;;;;;;;;25.17;72.01;99693.31;6284255;22;19911;-80
2023/08/03 05:01:49;;;;;;;;;;;;;;;25.27;71.37;99703.38;6284079;22;19907;-80
2023/08/03 05:04:41;;;;;;;;;;;;;;;25.43;70.76;99699.75;6284008;22;19907;-80
2023/08/03 05:07:35;;;;;;;;;;;;;;;25.52;70.38;99700.66;6284752;22;19907;-81
2023/08/03 05:10:27;;;;;;;;;;;;;;;25.56;69.80;99695.03;6284397;22;19910;-80
2023/08/03 05:13:16;;;;;;;;;;;;;;;25.62;69.52;99693.25;6285299;22;19911;-80
2023/08/03 05:16:05;;;;;;;;;;;;;;;25.73;69.24;99710.44;6284430;22;19907;-80
2023/08/03 05:18:57;;;;;;;;;;;;;;;25.79;69.07;99713.47;6285658;22;19907;-80
2023/08/03 05:21:49;;;;;;;;;;;;;;;25.83;69.00;99717.72;6276182;22;20162;-81
2023/08/03 05:24:41;;;;;;;;;;;;;;;25.87;68.66;99710.03;6285281;22;19907;-81
2023/08/03 05:27:33;;;;;;;;;;;;;;;25.94;68.48;99725.75;6285657;22;19907;-82
2023/08/03 05:30:25;;;;;;;;;;;;;;;25.97;68.34;99730.41;6283886;22;20330;-82
2023/08/03 05:33:17;;;;;;;;;;;;;;;25.96;68.37;99726.06;6283584;22;19912;-82
2023/08/03 05:36:25;;;;;;;;;;;;;;;25.99;68.23;99733.56;6285029;22;19911;-82
2023/08/03 05:39:34;;;;;;;;;;;;;;;26.01;68.23;99739.44;6283747;22;20318;-82
2023/08/03 05:42:44;;;;;;;;;;;;;;;26.10;67.77;99739.59;6285074;22;19911;-83
2023/08/03 05:45:39;;;;;;;;;;;;;;;26.11;67.86;99738.34;6285409;22;19907;-82
2023/08/03 05:48:33;;;;;;;;;;;;;;;26.13;67.68;99743.47;6285257;22;19911;-83
2023/08/03 05:51:31;;;;;;;;;;;;;;;26.10;67.79;99745.16;6285451;22;19912;-82
2023/08/03 05:54:20;;;;;;;;;;;;;;;26.09;68.01;99746.38;6284902;22;19911;-82
2023/08/03 05:57:13;;;;;;;;;;;;;;;26.09;67.51;99742.81;6285181;22;19907;-82
2023/08/03 06:00:05;;;;;;;;;;;;;;;26.15;67.82;99744.63;6284164;22;19911;-82
2023/08/03 06:03:04;;;;;;;;;;;;;;;26.18;67.42;99746.50;6282594;22;19911;-83
2023/08/03 06:05:56;;;;;;;;;;;;;;;26.20;67.71;99752.44;6285217;22;19907;-82
2023/08/03 06:08:46;;;;;;;;;;;;;;;26.23;67.82;99754.34;6285258;22;19907;-81
2023/08/03 06:11:35;;;;;;;;;;;;;;;26.25;67.88;99746.31;6284914;22;19911;-81
2023/08/03 06:14:26;;;;;;;;;;;;;;;26.24;68.21;99747.53;6285146;22;19907;-81
2023/08/03 06:17:22;;;;;;;;;;;;;;;26.27;67.98;99743.84;6285428;22;19907;-81
2023/08/03 06:20:14;;;;;;;;;;;;;;;26.39;68.32;99745.88;6283635;22;19907;-81
2023/08/03 06:23:05;;;;;;;;;;;;;;;26.42;65.87;99746.97;6283837;22;19907;-80
2023/08/03 06:25:57;;;;;;;;;;;;;;;26.44;66.38;99749.31;6281654;22;19907;-81
2023/08/03 06:28:49;;;;;;;;;;;;;;;26.53;66.12;99755.00;6284272;22;19907;-80
2023/08/03 06:31:42;;;;;;;;;;;;;;;26.52;66.21;99753.44;6280618;22;20005;-81
2023/08/03 06:34:36;;;;;;;;;;;;;;;26.57;65.87;99750.09;6284251;22;19910;-80
2023/08/03 06:37:28;;;;;;;;;;;;;;;26.68;64.78;99750.53;6284042;22;20254;-82
2023/08/03 06:40:19;;;;;;;;;;;;;;;26.62;65.01;99750.31;6284383;22;19907;-81
2023/08/03 06:43:11;;;;;;;;;;;;;;;26.71;64.95;99744.06;6284668;22;20480;-81
2023/08/03 06:46:03;;;;;;;;;;;;;;;26.70;65.25;99742.50;6283758;22;19907;-82
2023/08/03 06:48:54;;;;;;;;;;;;;;;26.78;64.80;99738.25;6283202;22;19907;-81
2023/08/03 06:51:43;;;;;;;;;;;;;;;26.83;64.68;99746.81;6284453;22;20331;-81
2023/08/03 06:54:35;;;;;;;;;;;;;;;26.88;64.00;99742.72;6284641;22;19907;-80
2023/08/03 06:57:26;;;;;;;;;;;;;;;26.88;64.21;99744.72;6284693;22;19907;-81
2023/08/03 07:00:18;;;;;;;;;;;;;;;26.91;63.81;99747.41;6284026;22;19907;-80
2023/08/03 07:03:10;;;;;;;;;;;;;;;27.04;63.62;99744.56;6284505;22;19907;-81
2023/08/03 07:06:03;;;;;;;;;;;;;;;27.14;63.40;99749.78;6284344;22;19911;-81
2023/08/03 07:08:55;;;;;;;;;;;;;;;27.22;62.48;99751.13;6284701;22;19907;-82
2023/08/03 07:11:47;;;;;;;;;;;;;;;27.32;62.91;99753.97;6284447;22;19911;-82
2023/08/03 07:14:34;;;;;;;;;;;;;;;27.41;61.76;99757.63;6283760;22;19907;-82
2023/08/03 07:17:26;;;;;;;;;;;;;;;27.42;61.82;99766.78;6284233;22;19907;-82
2023/08/03 07:20:16;;;;;;;;;;;;;;;27.41;61.79;99762.44;6282686;22;19906;-82
2023/08/03 07:23:07;;;;;;;;;;;;;;;27.41;62.16;99759.63;6283975;22;19907;-82
2023/08/03 07:25:59;;;;;;;;;;;;;;;27.36;61.93;99761.00;6285013;22;19907;-82
2023/08/03 07:28:52;;;;;;;;;;;;;;;27.43;62.16;99757.19;6274155;22;20346;-82
2023/08/03 07:31:44;;;;;;;;;;;;;;;27.55;61.15;99761.94;6284353;22;19911;-82
2023/08/03 07:34:34;;;;;;;;;;;;;;;27.57;60.77;99759.50;6284573;22;20242;-82
2023/08/03 07:37:27;;;;;;;;;;;;;;;27.72;60.59;99765.34;6305518;22;19907;-82
2023/08/03 07:40:17;;;;;;;;;;;;;;;27.71;59.59;99769.34;6285337;22;19907;-82
2023/08/03 07:43:07;;;;;;;;;;;;;;;27.77;59.53;99767.53;6286650;22;19907;-83
2023/08/03 07:45:59;;;;;;;;;;;;;;;27.82;59.87;99764.16;6286589;22;19907;-83
2023/08/03 07:48:51;;;;;;;;;;;;;;;27.73;60.42;99769.69;6286526;22;19907;-82
2023/08/03 07:51:41;;;;;;;;;;;;;;;27.76;61.17;99763.19;6286174;22;19911;-82
2023/08/03 07:54:33;;;;;;;;;;;;;;;27.70;60.91;99760.19;6286357;22;20322;-82
2023/08/03 07:57:22;;;;;;;;;;;;;;;27.79;60.67;99762.25;6286454;22;19911;-83
2023/08/03 08:00:12;;;;;;;;;;;;;;;27.77;60.54;99765.53;6286271;22;19907;-83
2023/08/03 08:02:59;;;;;;;;;;;;;;;27.82;59.95;99756.56;6286095;22;19907;-82
2023/08/03 08:05:51;;;;;;;;;;;;;;;27.89;59.73;99752.69;6285123;22;19906;-82
2023/08/03 08:08:43;;;;;;;;;;;;;;;27.95;59.24;99750.88;6284334;22;19911;-82
2023/08/03 08:11:35;;;;;;;;;;;;;;;27.86;59.60;99751.63;6286115;22;20246;-83
2023/08/03 08:14:24;;;;;;;;;;;;;;;27.90;59.59;99765.44;6286211;22;19907;-83
2023/08/03 08:17:16;;;;;;;;;;;;;;;27.89;59.81;99759.06;6286227;22;19907;-83
2023/08/03 08:20:08;;;;;;;;;;;;;;;27.91;59.72;99755.81;6286236;22;20264;-82
2023/08/03 08:23:01;;;;;;;;;;;;;;;28.14;60.10;99760.19;6286256;22;19907;-82
2023/08/03 08:25:53;;;;;;;;;;;;;;;28.13;59.19;99762.22;6286292;22;19911;-82
2023/08/03 08:28:45;;;;;;;;;;;;;;;28.06;59.45;99770.81;6286200;22;19907;-82
2023/08/03 08:31:33;;;;;;;;;;;;;;;28.05;59.48;99772.84;6285926;22;20250;-82
2023/08/03 08:34:25;;;;;;;;;;;;;;;28.04;59.63;99771.28;6285728;22;20234;-82
2023/08/03 08:37:17;;;;;;;;;;;;;;;28.03;59.32;99771.75;6286015;22;19907;-83
2023/08/03 08:40:11;;;;;;;;;;;;;;;28.11;59.09;99775.81;6286092;22;19907;-82
2023/08/03 08:43:03;;;;;;;;;;;;;;;28.19;58.82;99770.78;6286011;22;19907;-82
2023/08/03 08:45:53;;;;;;;;;;;;;;;28.17;58.80;99773.25;6285859;22;19906;-82
2023/08/03 08:48:44;;;;;;;;;;;;;;;28.35;57.75;99781.72;6286195;22;19907;-82
2023/08/03 08:51:36;;;;;;;;;;;;;;;28.39;57.91;99785.94;6285391;22;19911;-82
2023/08/03 08:54:23;;;;;;;;;;;;;;;28.32;58.33;99785.44;6285628;22;19907;-82
2023/08/03 08:57:12;;;;;;;;;;;;;;;28.41;57.98;99779.88;6285969;22;20264;-82
2023/08/03 09:00:05;;;;;;;;;;;;;;;28.42;57.79;99778.66;6285699;22;19907;-82
2023/08/03 09:03:01;;;;;;;;;;;;;;;28.38;58.28;99778.78;6285912;22;19907;-82
2023/08/03 09:06:02;;;;;;;;;;;;;;;28.36;58.31;99760.91;6285782;22;19907;-82
2023/08/03 09:08:58;;;;;;;;;;;;;;;28.42;57.95;99770.25;6283576;22;19907;-83
2023/08/03 09:11:48;;;;;;;;;;;;;;;28.48;57.90;99760.81;6284545;22;20246;-82
2023/08/03 09:14:55;;;;;;;;;;;;;;;28.54;58.08;99766.59;6284332;22;19907;-82
2023/08/03 09:17:47;;;;;;;;;;;;;;;28.54;57.50;99769.38;6285458;22;19907;-82
2023/08/03 09:20:38;;;;;;;;;;;;;;;28.60;57.04;99773.13;6285244;22;19907;-82
2023/08/03 09:23:30;;;;;;;;;;;;;;;28.70;55.77;99771.91;6284432;22;20643;-83
2023/08/03 09:26:24;;;;;;;;;;;;;;;28.65;56.37;99780.91;6285449;22;19911;-82
2023/08/03 09:29:16;;;;;;;;;;;;;;;28.71;56.21;99767.88;6282782;22;19911;-82
2023/08/03 09:32:06;;;;;;;;;;;;;;;28.68;56.92;99774.41;6284989;22;19911;-82
2023/08/03 09:34:56;;;;;;;;;;;;;;;28.65;57.13;99777.34;6285153;22;19907;-82
2023/08/03 09:37:47;;;;;;;;;;;;;;;28.66;56.99;99776.09;6285520;22;19911;-82
2023/08/03 09:40:44;;;;;;;;;;;;;;;28.73;55.85;99771.03;6285194;22;20061;-82
2023/08/03 09:43:35;;;;;;;;;;;;;;;28.83;56.44;99771.81;6284856;22;20310;-83
2023/08/03 09:46:25;;;;;;;;;;;;;;;28.85;56.17;99770.09;6285403;22;19929;-84
2023/08/03 09:49:15;;;;;;;;;;;;;;;28.96;54.90;99774.47;6284979;22;20170;-84
2023/08/03 09:52:06;;;;;;;;;;;;;;;28.97;55.54;99778.84;6285053;22;19911;-82
2023/08/03 09:55:08;;;;;;;;;;;;;;;28.89;56.17;99775.56;6282185;22;19907;-83
2023/08/03 09:58:02;;;;;;;;;;;;;;;28.87;55.93;99772.44;6284343;22;19907;-82
2023/08/03 10:00:54;;;;;;;;;;;;;;;28.88;55.84;99777.59;6305153;22;19907;-83
2023/08/03 10:03:44;;;;;;;;;;;;;;;29.26;52.16;99776.38;6284266;22;19911;-82
2023/08/03 10:06:36;;;;;;;;;;;;;;;29.25;54.01;99788.84;6284764;22;20234;-82
2023/08/03 10:09:29;;;;;;;;;;;;;;;29.13;54.64;99782.16;6284704;22;19907;-82
2023/08/03 10:12:22;;;;;;;;;;;;;;;29.02;55.50;99775.44;6284856;22;19911;-82
2023/08/03 10:15:09;;;;;;;;;;;;;;;28.96;55.50;99780.84;6284661;22;19907;-82
2023/08/03 10:18:02;;;;;;;;;;;;;;;28.98;55.59;99784.00;6284661;22;19907;-82
2023/08/03 10:20:55;;;;;;;;;;;;;;;29.00;55.68;99770.31;6284364;22;20249;-81
2023/08/03 10:24:05;;;;;;;;;;;;;;;29.14;55.06;99774.53;6284677;22;19907;-82
2023/08/03 10:27:15;;;;;;;;;;;;;;;29.07;55.03;99767.19;6284656;22;19907;-82
2023/08/03 10:30:08;;;;;;;;;;;;;;;29.04;55.06;99759.75;6284123;22;20323;-82
2023/08/03 10:33:00;;;;;;;;;;;;;;;29.02;55.29;99758.63;6283645;22;19915;-81
2023/08/03 10:35:50;;;;;;;;;;;;;;;29.04;55.44;99761.75;6284478;22;19907;-82
2023/08/03 10:38:43;;;;;;;;;;;;;;;28.99;55.83;99770.78;6284082;22;19907;-82
2023/08/03 10:41:38;;;;;;;;;;;;;;;28.95;55.73;99764.53;6281544;22;20257;-82
2023/08/03 10:44:30;;;;;;;;;;;;;;;28.89;55.84;99765.16;6281147;22;20234;-82
2023/08/03 10:47:24;;;;;;;;;;;;;;;28.87;55.84;99766.84;6283934;22;20326;-83
2023/08/03 10:50:14;;;;;;;;;;;;;;;28.85;55.80;99767.31;6283445;22;19936;-82
2023/08/03 10:53:06;;;;;;;;;;;;;;;28.89;56.01;99767.97;6284470;22;19911;-82
2023/08/03 10:56:04;;;;;;;;;;;;;;;28.90;55.45;99763.91;6283587;22;19907;-82
2023/08/03 10:58:55;;;;;;;;;;;;;;;28.87;55.86;99759.22;6283283;22;19907;-83
2023/08/03 11:01:48;;;;;;;;;;;;;;;28.99;53.86;99760.34;6282636;22;19907;-82
2023/08/03 11:04:39;;;;;;;;;;;;;;;28.95;55.70;99764.53;6283478;22;19907;-82
2023/08/03 11:07:35;;;;;;;;;;;;;;;28.89;56.01;99765.16;6284182;22;19907;-82
2023/08/03 11:10:27;;;;;;;;;;;;;;;28.95;54.85;99759.72;6283660;22;19907;-82
2023/08/03 11:13:15;;;;;;;;;;;;;;;28.91;55.78;99759.84;6284151;22;19911;-83
2023/08/03 11:16:07;;;;;;;;;;;;;;;28.89;56.10;99759.56;6304985;22;19911;-82
2023/08/03 11:18:59;;;;;;;;;;;;;;;28.87;56.20;99756.44;6286535;22;19907;-82
2023/08/03 11:21:47;;;;;;;;;;;;;;;28.86;56.46;99752.06;6284990;22;19907;-83
2023/08/03 11:24:34;;;;;;;;;;;;;;;28.94;55.88;99751.78;6286109;22;19907;-85
2023/08/03 11:27:24;;;;;;;;;;;;;;;29.05;53.85;99754.91;6286789;22;19907;-84
2023/08/03 11:30:21;;;;;;;;;;;;;;;29.21;54.67;99746.19;6286434;22;19907;-84
2023/08/03 11:33:14;;;;;;;;;;;;;;;29.21;54.75;99740.59;6286184;22;19911;-84
2023/08/03 11:36:06;;;;;;;;;;;;;;;29.29;54.12;99736.25;6286734;22;19907;-84
2023/08/03 11:38:55;;;;;;;;;;;;;;;29.41;53.82;99731.78;6286544;22;20238;-84
2023/08/03 11:41:48;;;;;;;;;;;;;;;29.52;53.97;99730.03;6286203;22;19938;-84
2023/08/03 11:44:47;;;;;;;;;;;;;;;29.79;51.87;99736.84;6285742;22;19907;-86
2023/08/03 11:47:46;;;;;;;;;;;;;;;29.95;50.52;99744.94;6287171;22;19907;-87
2023/08/03 11:50:36;;;;;;;;;;;;;;;30.22;49.75;99728.03;6287096;22;20019;-86
2023/08/03 11:53:29;;;;;;;;;;;;;;;30.15;50.39;99728.38;6286677;22;19911;-86
2023/08/03 11:56:22;;;;;;;;;;;;;;;30.03;51.04;99729.34;6286715;22;19907;-86
2023/08/03 11:59:12;;;;;;;;;;;;;;;30.19;49.64;99714.94;6287459;22;19911;-86
2023/08/03 12:02:04;;;;;;;;;;;;;;;30.24;50.15;99710.72;6285924;22;20323;-85
2023/08/03 12:04:56;;;;;;;;;;;;;;;30.58;49.04;99719.47;6285256;22;19911;-86
2023/08/03 12:08:11;;;;;;;;;;;;;;;30.39;49.96;99705.97;6287161;22;19907;-86
2023/08/03 12:11:04;;;;;;;;;;;;;;;31.07;48.08;99709.81;6286674;22;19911;-85
2023/08/03 12:13:52;;;;;;;;;;;;;;;30.62;49.18;99696.84;6285069;22;19911;-87
2023/08/03 12:16:45;;;;;;;;;;;;;;;30.39;49.96;99703.16;6282153;22;19911;-86
2023/08/03 12:19:37;;;;;;;;;;;;;;;30.45;49.42;99704.84;6284697;22;20242;-86
2023/08/03 12:22:26;;;;;;;;;;;;;;;30.66;48.71;99703.06;6281982;22;19910;-86
2023/08/03 12:25:30;;;;;;;;;;;;;;;30.81;47.82;99684.25;6285242;22;19911;-86
2023/08/03 12:28:42;;;;;;;;;;;;;;;30.94;48.03;99695.97;6283913;22;19907;-86
2023/08/03 12:31:34;;;;;;;;;;;;;;;30.83;48.24;99689.38;6285122;22;19911;-86
2023/08/03 12:34:26;;;;;;;;;;;;;;;30.63;48.56;99692.00;6285981;22;19911;-86
2023/08/03 12:37:16;;;;;;;;;;;;;;;30.77;47.41;99691.28;6281338;22;19911;-86
2023/08/03 12:40:27;;;;;;;;;;;;;;;31.01;46.88;99690.00;6285123;22;19907;-85
2023/08/03 12:43:16;;;;;;;;;;;;;;;30.67;48.12;99687.78;6285584;22;19911;-85
2023/08/03 12:46:08;;;;;;;;;;;;;;;31.00;46.52;99690.47;6286472;22;19907;-87
2023/08/03 12:49:18;;;;;;;;;;;;;;;30.74;47.50;99681.78;6287291;22;19906;-89
2023/08/03 12:52:09;;;;;;;;;;;;;;;30.23;49.13;99681.88;6287628;22;19907;-87
2023/08/03 12:55:01;;;;;;;;;;;;;;;30.87;47.33;99678.75;6284893;22;19908;-86
2023/08/03 12:57:53;;;;;;;;;;;;;;;30.61;48.38;99677.66;6286778;22;20322;-85
2023/08/03 13:01:03;;;;;;;;;;;;;;;30.87;46.84;99673.13;6286507;22;19907;-85
2023/08/03 13:03:52;;;;;;;;;;;;;;;31.02;47.10;99679.59;6286106;22;20322;-85
2023/08/03 13:07:02;;;;;;;;;;;;;;;31.30;46.13;99685.72;6286571;22;19907;-85
2023/08/03 13:09:54;;;;;;;;;;;;;;;31.61;46.54;99679.69;6286188;22;19911;-85
2023/08/03 13:12:46;;;;;;;;;;;;;;;30.92;47.19;99678.06;6286987;22;19907;-87
2023/08/03 13:15:56;;;;;;;;;;;;;;;30.85;47.23;99682.03;6285327;22;20334;-88
2023/08/03 13:18:45;;;;;;;;;;;;;;;31.04;46.97;99681.91;6286876;22;19907;-88
2023/08/03 13:21:37;;;;;;;;;;;;;;;30.73;46.82;99680.22;6286595;22;19907;-87
2023/08/03 13:24:24;;;;;;;;;;;;;;;30.66;47.23;99674.97;6286745;22;19907;-88
2023/08/03 13:27:18;;;;;;;;;;;;;;;30.68;47.31;99669.66;6285879;22;19911;-88
2023/08/03 13:30:08;;;;;;;;;;;;;;;30.24;49.24;99669.41;6286550;22;19911;-88
2023/08/03 13:33:12;;;;;;;;;;;;;;;30.10;49.36;99670.13;6285739;22;20344;-87
2023/08/03 13:36:04;;;;;;;;;;;;;;;30.21;47.46;99667.59;6286849;22;19911;-88
2023/08/03 13:38:57;;;;;;;;;;;;;;;30.28;46.41;99666.44;6286671;22;19907;-88
2023/08/03 13:41:47;;;;;;;;;;;;;;;30.40;46.58;99655.00;6284701;22;19915;-88
2023/08/03 13:44:39;;;;;;;;;;;;;;;30.49;46.73;99665.41;6286152;22;19907;-88
2023/08/03 13:47:29;;;;;;;;;;;;;;;30.41;45.47;99661.41;6284436;22;19911;-88
2023/08/03 13:50:21;;;;;;;;;;;;;;;30.10;47.31;99658.91;6285891;22;19907;-86
2023/08/03 13:53:13;;;;;;;;;;;;;;;29.96;47.58;99668.00;6285903;22;19915;-88
2023/08/03 13:56:03;;;;;;;;;;;;;;;29.82;47.80;99657.44;6285439;22;19907;-88
2023/08/03 13:58:50;;;;;;;;;;;;;;;29.98;46.97;99659.88;6286469;22;19907;-88
2023/08/03 14:01:42;;;;;;;;;;;;;;;29.64;48.59;99659.03;6286019;22;19907;-88
2023/08/03 14:04:32;;;;;;;;;;;;;;;29.55;47.87;99647.84;6286930;22;19911;-88
2023/08/03 14:07:21;;;;;;;;;;;;;;;29.53;48.06;99650.34;6285976;22;19915;-88
2023/08/03 14:10:11;;;;;;;;;;;;;;;29.56;48.40;99643.78;6287286;22;19907;-88
2023/08/03 14:13:03;;;;;;;;;;;;;;;29.72;47.36;99642.66;6287284;22;19911;-88
2023/08/03 14:15:55;;;;;;;;;;;;;;;29.96;45.80;99642.78;6287521;22;19907;-88
2023/08/03 14:18:47;;;;;;;;;;;;;;;30.09;45.35;99648.94;6287587;22;19907;-88
2023/08/03 14:21:37;;;;;;;;;;;;;;;29.62;47.45;99650.31;6287255;22;19907;-88
2023/08/03 14:24:31;;;;;;;;;;;;;;;29.46;46.89;99642.25;6287323;22;20234;-88
2023/08/03 14:27:41;;;;;;;;;;;;;;;29.44;47.51;99639.16;6287293;22;19907;-88
2023/08/03 14:30:25;;;;;;;;;;;;;;;29.33;47.71;99644.47;6286613;22;19907;-87
2023/08/03 14:33:17;;;;;;;;;;;;;;;29.40;47.19;99637.78;6285402;22;20330;-88
2023/08/03 14:36:11;;;;;;;;;;;;;;;29.40;47.11;99637.78;6286433;22;20315;-88
2023/08/03 14:39:04;;;;;;;;;;;;;;;29.43;47.16;99642.44;6285476;22;20323;-86
2023/08/03 14:42:13;;;;;;;;;;;;;;;29.46;46.61;99641.50;6286132;22;19911;-87
2023/08/03 14:45:23;;;;;;;;;;;;;;;29.36;47.83;99643.50;6286674;22;19907;-88
2023/08/03 14:48:14;;;;;;;;;;;;;;;29.26;47.80;99644.75;6286970;22;19911;-87
2023/08/03 14:51:06;;;;;;;;;;;;;;;29.24;47.55;99642.44;6288329;22;19907;-86
2023/08/03 14:54:14;;;;;;;;;;;;;;;29.36;47.40;99639.97;6288601;22;19911;-87
2023/08/03 14:57:06;;;;;;;;;;;;;;;29.17;48.09;99645.53;6288084;22;19915;-87
2023/08/03 14:59:58;;;;;;;;;;;;;;;29.07;48.87;99646.78;6288910;22;19907;-87
2023/08/03 15:02:47;;;;;;;;;;;;;;;28.97;48.29;99645.25;6288222;22;19911;-88
2023/08/03 15:05:37;;;;;;;;;;;;;;;29.01;48.26;99636.69;6288539;22;20242;-87